Time;durP1;ratioP1;P1;durP2;ratioP2;P2;SDS_P1;SDS_P2;PMS_P1;PMS_P2;Temp;Humidity;BMP_temperature;BMP_pressure;BME280_temperature;BME280_humidity;BME280_pressure;Samples;Min_cycle;Max_cycle;Signal;HPM_P1;HPM_P2
2022/11/09 00:00:44;;;;;;;6.23;2.50;;;14.30;99.90;;;;;;5073358;28;20441;-73
2022/11/09 00:03:13;;;;;;;4.37;2.60;;;14.30;99.90;;;;;;5073319;28;20966;-73
2022/11/09 00:05:41;;;;;;;4.37;2.70;;;14.30;99.90;;;;;;5073380;28;20437;-73
2022/11/09 00:08:10;;;;;;;4.00;3.10;;;14.30;99.90;;;;;;5072147;28;20451;-73
2022/11/09 00:10:38;;;;;;;5.20;2.80;;;14.30;99.90;;;;;;5073027;28;20934;-73
2022/11/09 00:13:08;;;;;;;4.67;2.73;;;14.30;99.90;;;;;;5077227;28;20864;-73
2022/11/09 00:15:36;;;;;;;4.60;3.27;;;14.30;99.90;;;;;;5077930;28;20531;-73
2022/11/09 00:18:04;;;;;;;6.00;2.80;;;14.30;99.90;;;;;;5077938;28;20437;-73
2022/11/09 00:20:32;;;;;;;3.50;2.37;;;14.20;99.90;;;;;;5077504;28;20437;-73
2022/11/09 00:23:00;;;;;;;4.17;2.70;;;14.20;99.90;;;;;;5077233;28;20469;-73
2022/11/09 00:25:28;;;;;;;3.93;2.70;;;14.20;99.90;;;;;;5077554;28;20787;-73
2022/11/09 00:27:56;;;;;;;5.13;2.67;;;14.20;99.90;;;;;;5077082;28;20452;-73
2022/11/09 00:30:27;;;;;;;4.40;2.70;;;14.20;99.90;;;;;;5076946;28;20437;-73
2022/11/09 00:32:56;;;;;;;4.80;2.90;;;14.20;99.90;;;;;;5075813;28;20887;-73
2022/11/09 00:35:24;;;;;;;3.87;2.70;;;14.20;99.90;;;;;;5077602;28;20482;-73
2022/11/09 00:37:52;;;;;;;4.03;2.70;;;14.10;99.90;;;;;;5075577;28;20482;-73
2022/11/09 00:40:20;;;;;;;5.33;3.03;;;14.10;99.90;;;;;;5075841;28;20441;-73
2022/11/09 00:42:48;;;;;;;4.63;3.40;;;14.10;99.90;;;;;;5076829;28;20514;-73
2022/11/09 00:45:16;;;;;;;4.20;2.80;;;14.10;99.90;;;;;;5075464;28;20445;-73
2022/11/09 00:47:46;;;;;;;3.67;2.37;;;14.00;99.90;;;;;;5076792;28;20934;-73
2022/11/09 00:50:15;;;;;;;3.57;2.47;;;14.00;99.90;;;;;;5075618;28;20437;-73
2022/11/09 00:52:43;;;;;;;3.60;2.37;;;14.00;99.90;;;;;;5076369;28;20527;-73
2022/11/09 00:55:12;;;;;;;6.80;2.70;;;14.00;99.90;;;;;;5076537;28;20433;-73
2022/11/09 00:57:40;;;;;;;4.53;2.57;;;13.90;99.90;;;;;;5075284;28;20445;-73
2022/11/09 01:00:10;;;;;;;4.13;2.63;;;13.90;99.90;;;;;;5075077;28;20494;-73
2022/11/09 01:02:38;;;;;;;3.50;2.50;;;13.90;99.90;;;;;;5075164;28;20491;-72
2022/11/09 01:05:08;;;;;;;4.50;2.77;;;13.80;99.90;;;;;;5075279;28;20524;-73
2022/11/09 01:07:37;;;;;;;3.57;2.53;;;13.80;99.90;;;;;;5075154;28;20821;-73
2022/11/09 01:10:06;;;;;;;3.90;2.57;;;13.80;99.90;;;;;;5075045;28;20499;-72
2022/11/09 01:12:34;;;;;;;3.57;2.93;;;13.80;99.90;;;;;;5075966;28;20984;-73
2022/11/09 01:15:02;;;;;;;4.80;3.40;;;13.70;99.90;;;;;;5076080;28;20429;-73
2022/11/09 01:17:32;;;;;;;5.90;3.00;;;13.70;99.90;;;;;;5076317;28;20460;-73
2022/11/09 01:20:00;;;;;;;5.00;2.90;;;13.70;99.90;;;;;;5074940;28;20935;-73
2022/11/09 01:22:29;;;;;;;3.93;3.20;;;13.70;99.90;;;;;;5074803;28;20472;-73
2022/11/09 01:24:57;;;;;;;5.33;2.97;;;13.70;99.90;;;;;;5073832;28;20441;-73
2022/11/09 01:27:26;;;;;;;5.80;2.77;;;13.70;99.90;;;;;;5074552;28;20468;-73
2022/11/09 01:29:53;;;;;;;6.20;3.00;;;13.70;99.90;;;;;;5076368;28;20433;-73
2022/11/09 01:32:22;;;;;;;5.00;2.60;;;13.60;99.90;;;;;;5074494;28;20479;-73
2022/11/09 01:34:50;;;;;;;9.03;2.80;;;13.60;99.90;;;;;;5076093;28;20429;-73
2022/11/09 01:37:18;;;;;;;5.00;2.90;;;13.60;99.90;;;;;;5074550;28;20968;-73
2022/11/09 01:39:47;;;;;;;3.87;2.83;;;13.60;99.90;;;;;;5075712;28;20433;-73
2022/11/09 01:42:21;;;;;;;3.93;2.80;;;13.70;99.90;;;;;;5074260;28;20465;-73
2022/11/09 01:45:14;;;;;;;3.93;2.30;;;13.60;99.90;;;;;;5075117;28;20808;-73
2022/11/09 01:47:42;;;;;;;4.00;2.80;;;13.60;99.90;;;;;;5075582;28;20422;-73
2022/11/09 01:50:11;;;;;;;4.23;3.13;;;13.60;99.90;;;;;;5074356;28;20445;-73
2022/11/09 01:52:43;;;;;;;4.97;2.70;;;13.60;99.90;;;;;;5075447;28;20469;-73
2022/11/09 01:55:17;;;;;;;5.23;2.97;;;13.60;99.90;;;;;;5074166;28;20430;-73
2022/11/09 01:57:49;;;;;;;5.03;3.17;;;13.70;99.90;;;;;;5074457;28;20451;-73
2022/11/09 02:00:18;;;;;;;5.67;2.83;;;13.60;99.90;;;;;;5074293;28;20430;-74
2022/11/09 02:02:50;;;;;;;7.43;3.00;;;13.70;99.90;;;;;;5073659;28;20518;-74
2022/11/09 02:05:23;;;;;;;5.00;3.40;;;13.60;99.90;;;;;;5074196;28;20437;-73
2022/11/09 02:07:55;;;;;;;5.20;3.00;;;13.70;99.90;;;;;;5073908;28;20441;-73
2022/11/09 02:10:29;;;;;;;5.40;2.63;;;13.60;99.90;;;;;;5073939;28;20954;-73
2022/11/09 02:13:00;;;;;;;5.17;2.80;;;13.60;99.90;;;;;;5074393;28;20476;-73
2022/11/09 02:15:29;;;;;;;4.10;3.00;;;13.60;99.90;;;;;;5073765;28;20438;-73
2022/11/09 02:17:57;;;;;;;4.90;2.90;;;13.60;99.90;;;;;;5074807;28;20938;-73
2022/11/09 02:20:28;;;;;;;4.73;2.80;;;13.60;99.90;;;;;;5073648;28;20628;-73
2022/11/09 02:22:58;;;;;;;4.47;2.70;;;13.60;99.90;;;;;;5073269;28;20480;-73
2022/11/09 02:25:27;;;;;;;4.40;2.60;;;13.60;99.90;;;;;;5073567;28;20498;-73
2022/11/09 02:27:55;;;;;;;4.93;2.93;;;13.50;99.90;;;;;;5073581;28;20445;-73
2022/11/09 02:30:24;;;;;;;6.80;3.00;;;13.50;99.90;;;;;;5074920;28;20433;-73
2022/11/09 02:32:52;;;;;;;4.30;3.23;;;13.50;99.90;;;;;;5074018;28;20602;-73
2022/11/09 02:35:20;;;;;;;4.27;2.80;;;13.50;99.90;;;;;;5073052;28;20441;-73
2022/11/09 02:37:50;;;;;;;5.90;2.50;;;13.60;99.90;;;;;;5073176;28;20445;-73
2022/11/09 02:40:23;;;;;;;6.10;3.10;;;13.50;99.90;;;;;;5073194;28;20438;-73
2022/11/09 02:42:51;;;;;;;5.00;2.73;;;13.50;99.90;;;;;;5073038;28;20460;-72
2022/11/09 02:45:19;;;;;;;5.23;2.80;;;13.60;99.90;;;;;;5073033;28;20449;-73
2022/11/09 02:47:47;;;;;;;4.77;2.70;;;13.60;99.90;;;;;;5074385;28;20440;-73
2022/11/09 02:50:15;;;;;;;6.93;3.57;;;13.60;99.90;;;;;;5073118;28;20445;-73
2022/11/09 02:52:44;;;;;;;7.03;3.07;;;13.60;99.90;;;;;;5072755;28;20844;-73
2022/11/09 02:55:13;;;;;;;4.60;2.47;;;13.60;99.90;;;;;;5072974;28;20437;-73
2022/11/09 02:57:41;;;;;;;6.13;3.50;;;13.70;99.90;;;;;;5072961;28;20449;-73
2022/11/09 03:00:13;;;;;;;5.87;3.47;;;13.70;99.90;;;;;;5073536;28;20445;-73
2022/11/09 03:02:43;;;;;;;4.70;2.60;;;13.70;99.90;;;;;;5072989;28;20479;-73
2022/11/09 03:05:12;;;;;;;3.80;2.77;;;13.70;99.90;;;;;;5072976;28;20445;-73
2022/11/09 03:07:42;;;;;;;4.27;3.00;;;13.70;99.90;;;;;;5072730;28;20524;-72
2022/11/09 03:10:13;;;;;;;6.90;3.07;;;13.80;99.90;;;;;;5072424;28;20480;-73
2022/11/09 03:12:42;;;;;;;5.07;2.67;;;13.80;99.90;;;;;;5072702;28;20469;-73
2022/11/09 03:15:14;;;;;;;5.83;2.83;;;13.80;99.90;;;;;;5072863;28;20453;-73
2022/11/09 03:17:46;;;;;;;4.37;2.93;;;13.80;99.90;;;;;;5072773;28;20473;-73
2022/11/09 03:20:15;;;;;;;4.87;2.83;;;13.80;99.90;;;;;;5072657;28;20452;-73
2022/11/09 03:22:43;;;;;;;4.80;3.00;;;13.80;99.90;;;;;;5072471;28;20994;-73
2022/11/09 03:25:14;;;;;;;4.20;2.70;;;13.80;99.90;;;;;;5072488;28;20445;-73
2022/11/09 03:27:42;;;;;;;3.37;2.63;;;13.80;99.90;;;;;;5072402;28;20502;-73
2022/11/09 03:30:11;;;;;;;4.20;2.70;;;13.80;99.90;;;;;;5073070;28;20499;-73
2022/11/09 03:32:40;;;;;;;4.10;3.00;;;13.80;99.90;;;;;;5072367;28;20485;-73
2022/11/09 03:35:09;;;;;;;3.90;2.80;;;13.90;99.90;;;;;;5072355;28;20465;-73
2022/11/09 03:37:37;;;;;;;4.90;2.40;;;13.80;99.90;;;;;;5074160;28;20445;-73
2022/11/09 03:40:06;;;;;;;4.90;2.50;;;13.80;99.90;;;;;;5072565;28;20449;-73
2022/11/09 03:42:36;;;;;;;7.20;3.00;;;13.80;99.90;;;;;;5073782;28;20452;-73
2022/11/09 03:45:06;;;;;;;5.20;2.80;;;13.80;99.90;;;;;;5072237;28;20437;-73
2022/11/09 03:47:34;;;;;;;5.13;2.70;;;13.80;99.90;;;;;;5072978;28;20443;-73
2022/11/09 03:50:03;;;;;;;4.33;2.67;;;13.80;99.90;;;;;;5073573;28;20968;-73
2022/11/09 03:52:31;;;;;;;4.50;2.80;;;13.80;99.90;;;;;;5075103;28;21022;-73
2022/11/09 03:54:59;;;;;;;4.63;2.57;;;13.80;99.90;;;;;;5072971;28;20487;-73
2022/11/09 03:57:27;;;;;;;5.40;2.80;;;13.80;99.90;;;;;;5073504;28;20444;-73
2022/11/09 03:59:56;;;;;;;3.43;2.23;;;13.80;99.90;;;;;;5072838;28;20456;-73
2022/11/09 04:02:24;;;;;;;6.00;2.80;;;13.90;99.90;;;;;;5073934;28;20502;-73
2022/11/09 04:04:52;;;;;;;4.23;2.60;;;13.80;99.90;;;;;;5072791;28;20795;-73
2022/11/09 04:07:20;;;;;;;5.23;2.40;;;13.90;99.90;;;;;;5073441;28;20433;-73
2022/11/09 04:09:48;;;;;;;5.07;3.23;;;13.90;99.90;;;;;;5072815;28;20437;-73
2022/11/09 04:12:16;;;;;;;4.10;2.90;;;13.90;99.90;;;;;;5073677;28;20464;-73
2022/11/09 04:14:44;;;;;;;8.03;4.60;;;13.90;99.90;;;;;;5072096;28;20465;-73
2022/11/09 04:17:14;;;;;;;4.90;2.63;;;13.80;99.90;;;;;;5073688;28;20441;-73
2022/11/09 04:19:42;;;;;;;7.57;4.93;;;13.80;99.90;;;;;;5073483;28;20429;-73
2022/11/09 04:22:10;;;;;;;5.63;2.93;;;13.80;99.90;;;;;;5073520;28;20468;-73
2022/11/09 04:24:38;;;;;;;7.50;5.33;;;13.90;99.90;;;;;;5073441;28;20448;-73
2022/11/09 04:27:06;;;;;;;5.67;3.73;;;13.90;99.90;;;;;;5073335;28;20445;-73
2022/11/09 04:29:34;;;;;;;8.37;6.03;;;13.90;99.90;;;;;;5072074;28;20445;-73
2022/11/09 04:32:02;;;;;;;4.77;2.60;;;13.80;99.90;;;;;;5073629;28;20984;-73
2022/11/09 04:34:32;;;;;;;5.87;2.80;;;13.80;99.90;;;;;;5073317;28;20465;-73
2022/11/09 04:37:01;;;;;;;4.30;2.50;;;13.80;99.90;;;;;;5073272;28;20414;-73
2022/11/09 04:39:29;;;;;;;4.00;2.70;;;13.80;99.90;;;;;;5071674;28;20449;-73
2022/11/09 04:41:57;;;;;;;6.47;2.70;;;13.80;99.90;;;;;;5073369;28;20510;-73
2022/11/09 04:44:25;;;;;;;4.07;2.50;;;13.90;99.90;;;;;;5073435;28;20437;-73
2022/11/09 04:46:53;;;;;;;5.70;2.90;;;13.80;99.90;;;;;;5071674;28;20455;-73
2022/11/09 04:49:21;;;;;;;4.30;2.60;;;13.90;99.90;;;;;;5073027;28;20507;-73
2022/11/09 04:51:50;;;;;;;5.83;2.60;;;13.90;99.90;;;;;;5072997;28;20453;-73
2022/11/09 04:54:18;;;;;;;9.23;4.20;;;13.90;99.90;;;;;;5072982;28;20476;-73
2022/11/09 04:56:46;;;;;;;5.10;2.53;;;13.90;99.90;;;;;;5071743;28;20536;-73
2022/11/09 04:59:14;;;;;;;4.50;2.40;;;13.90;99.90;;;;;;5074485;28;20487;-73
2022/11/09 05:01:43;;;;;;;4.47;2.47;;;13.90;99.90;;;;;;5076120;28;20471;-73
2022/11/09 05:04:11;;;;;;;4.73;2.57;;;13.90;99.90;;;;;;5075063;28;20445;-73
2022/11/09 05:06:39;;;;;;;5.27;3.00;;;13.90;99.90;;;;;;5076375;28;20452;-73
2022/11/09 05:09:08;;;;;;;3.00;2.13;;;13.90;99.90;;;;;;5076371;28;20444;-73
2022/11/09 05:11:37;;;;;;;5.53;2.97;;;13.90;99.90;;;;;;5076178;28;20848;-73
2022/11/09 05:14:05;;;;;;;5.00;2.80;;;13.90;99.90;;;;;;5076532;28;20461;-73
2022/11/09 05:16:33;;;;;;;3.57;2.03;;;13.90;99.90;;;;;;5076668;28;20441;-73
2022/11/09 05:19:01;;;;;;;3.60;2.10;;;13.80;99.90;;;;;;5076450;28;20449;-73
2022/11/09 05:21:29;;;;;;;3.63;2.40;;;13.80;99.90;;;;;;5076197;28;20453;-73
2022/11/09 05:23:58;;;;;;;4.60;2.70;;;13.80;99.90;;;;;;5076016;28;20487;-73
2022/11/09 05:26:30;;;;;;;4.30;2.40;;;13.90;99.90;;;;;;5076232;28;20437;-72
2022/11/09 05:28:59;;;;;;;5.30;2.70;;;13.80;99.90;;;;;;5074806;28;20582;-73
2022/11/09 05:31:27;;;;;;;4.53;2.23;;;13.80;99.90;;;;;;5075748;28;20447;-73
2022/11/09 05:33:56;;;;;;;6.17;2.20;;;13.80;99.90;;;;;;5076103;28;20433;-73
2022/11/09 05:36:25;;;;;;;3.70;2.20;;;13.80;99.90;;;;;;5076219;28;20441;-73
2022/11/09 05:38:53;;;;;;;4.43;2.70;;;13.80;99.90;;;;;;5075988;28;20491;-73
2022/11/09 05:41:21;;;;;;;4.30;2.67;;;13.80;99.90;;;;;;5075657;28;20876;-73
2022/11/09 05:43:51;;;;;;;4.97;2.80;;;13.80;99.90;;;;;;5076158;28;20444;-73
2022/11/09 05:46:19;;;;;;;5.30;3.27;;;13.80;99.90;;;;;;5074585;28;20441;-73
2022/11/09 05:48:48;;;;;;;4.57;2.70;;;13.70;99.90;;;;;;5075541;28;20447;-73
2022/11/09 05:51:16;;;;;;;4.43;3.33;;;13.70;99.90;;;;;;5074366;28;20810;-73
2022/11/09 05:53:47;;;;;;;4.97;2.63;;;13.70;99.90;;;;;;5075629;28;20941;-73
2022/11/09 05:56:15;;;;;;;4.77;3.30;;;13.70;99.90;;;;;;5076039;28;20514;-73
2022/11/09 05:58:44;;;;;;;4.40;2.83;;;13.60;99.90;;;;;;5074623;28;20448;-73
2022/11/09 06:01:17;;;;;;;4.57;2.67;;;13.60;99.90;;;;;;5074117;28;20453;-73
2022/11/09 06:03:45;;;;;;;4.77;2.97;;;13.60;99.90;;;;;;5075730;28;20461;-72
2022/11/09 06:06:15;;;;;;;4.20;2.50;;;13.60;99.90;;;;;;5075228;28;20977;-73
2022/11/09 06:08:43;;;;;;;5.13;2.87;;;13.50;99.90;;;;;;5073832;28;20479;-73
2022/11/09 06:11:12;;;;;;;4.53;2.67;;;13.60;99.90;;;;;;5074601;28;20938;-73
2022/11/09 06:13:50;;;;;;;4.10;2.60;;;13.50;99.90;;;;;;5075400;28;20428;-73
2022/11/09 06:16:20;;;;;;;5.17;2.60;;;13.50;99.90;;;;;;5075351;28;20491;-74
2022/11/09 06:18:48;;;;;;;4.67;2.40;;;13.50;99.90;;;;;;5075504;28;20434;-73
2022/11/09 06:21:16;;;;;;;5.10;2.40;;;13.40;99.90;;;;;;5074746;28;20453;-73
2022/11/09 06:23:44;;;;;;;6.07;2.87;;;13.40;99.90;;;;;;5075100;28;20483;-73
2022/11/09 06:26:13;;;;;;;4.60;2.40;;;13.40;99.90;;;;;;5074977;28;20441;-73
2022/11/09 06:28:42;;;;;;;7.73;2.83;;;13.40;99.90;;;;;;5074956;28;20437;-73
2022/11/09 06:31:12;;;;;;;6.13;2.77;;;13.40;99.90;;;;;;5074617;28;20464;-73
2022/11/09 06:33:42;;;;;;;5.83;2.77;;;13.40;99.90;;;;;;5073193;28;20472;-73
2022/11/09 06:36:11;;;;;;;3.87;2.60;;;13.30;99.90;;;;;;5074775;28;20469;-73
2022/11/09 06:38:39;;;;;;;4.70;3.07;;;13.40;99.90;;;;;;5074836;28;20433;-73
2022/11/09 06:41:09;;;;;;;5.23;2.50;;;13.30;99.90;;;;;;5073172;28;20499;-73
2022/11/09 06:43:37;;;;;;;4.10;3.30;;;13.40;99.90;;;;;;5074678;28;20464;-73
2022/11/09 06:46:05;;;;;;;7.13;3.20;;;13.40;99.90;;;;;;5074695;28;20487;-73
2022/11/09 06:48:34;;;;;;;5.67;2.57;;;13.40;99.90;;;;;;5074348;28;20943;-73
2022/11/09 06:51:05;;;;;;;4.67;2.77;;;13.40;99.90;;;;;;5073708;28;20437;-73
2022/11/09 06:53:34;;;;;;;4.80;2.73;;;13.40;99.90;;;;;;5073077;28;20460;-73
2022/11/09 06:56:04;;;;;;;4.57;2.77;;;13.40;99.90;;;;;;5072882;28;20464;-73
2022/11/09 06:58:32;;;;;;;5.20;2.97;;;13.40;99.90;;;;;;5074163;28;20989;-73
2022/11/09 07:01:00;;;;;;;4.70;2.70;;;13.40;99.90;;;;;;5073921;28;20441;-73
2022/11/09 07:03:28;;;;;;;7.20;3.07;;;13.40;99.90;;;;;;5073978;28;20457;-73
2022/11/09 07:05:56;;;;;;;6.90;2.90;;;13.40;99.90;;;;;;5074029;28;20491;-73
2022/11/09 07:08:25;;;;;;;6.40;3.10;;;13.40;99.90;;;;;;5073887;28;20942;-73
2022/11/09 07:10:53;;;;;;;6.50;3.50;;;13.40;99.90;;;;;;5074149;28;20449;-73
2022/11/09 07:13:22;;;;;;;6.93;2.40;;;13.40;99.90;;;;;;5073803;28;20457;-73
2022/11/09 07:15:54;;;;;;;5.43;2.67;;;13.40;99.90;;;;;;5072469;28;20560;-73
2022/11/09 07:18:22;;;;;;;6.40;2.53;;;13.40;99.90;;;;;;5074419;28;20424;-73
2022/11/09 07:20:51;;;;;;;9.83;3.60;;;13.40;99.90;;;;;;5073464;28;21003;-73
2022/11/09 07:23:19;;;;;;;6.33;2.43;;;13.40;99.90;;;;;;5073215;28;20460;-73
2022/11/09 07:25:49;;;;;;;6.43;2.90;;;13.40;99.90;;;;;;5073840;28;20440;-73
2022/11/09 07:28:17;;;;;;;6.63;2.87;;;13.40;99.90;;;;;;5075038;28;20522;-73
2022/11/09 07:30:49;;;;;;;7.30;2.57;;;13.40;99.90;;;;;;5074619;28;20452;-73
2022/11/09 07:33:18;;;;;;;5.07;2.40;;;13.40;99.90;;;;;;5073064;28;21007;-73
2022/11/09 07:35:46;;;;;;;6.20;2.50;;;13.50;99.90;;;;;;5073854;28;20465;-73
2022/11/09 07:38:15;;;;;;;5.73;2.40;;;13.50;99.90;;;;;;5073734;28;20506;-73
2022/11/09 07:40:44;;;;;;;6.03;2.90;;;13.50;99.90;;;;;;5073891;28;20434;-73
2022/11/09 07:43:14;;;;;;;9.90;2.80;;;13.50;99.90;;;;;;5073509;28;20981;-73
2022/11/09 07:45:42;;;;;;;6.07;2.43;;;13.50;99.90;;;;;;5072583;28;20445;-73
2022/11/09 07:48:12;;;;;;;10.10;2.70;;;13.50;99.90;;;;;;5072397;28;20977;-73
2022/11/09 07:50:41;;;;;;;5.03;2.50;;;13.60;99.90;;;;;;5073709;28;20433;-73
2022/11/09 07:53:11;;;;;;;7.03;2.50;;;13.50;99.90;;;;;;5073411;28;20469;-73
2022/11/09 07:55:40;;;;;;;5.93;2.40;;;13.60;99.90;;;;;;5073477;28;20457;-73
2022/11/09 07:58:10;;;;;;;9.80;2.70;;;13.60;99.90;;;;;;5073315;28;20491;-73
2022/11/09 08:00:42;;;;;;;5.30;2.40;;;13.60;99.90;;;;;;5072697;28;20480;-72
2022/11/09 08:03:10;;;;;;;8.37;2.87;;;13.60;99.90;;;;;;5073994;28;20817;-72
2022/11/09 08:05:39;;;;;;;4.23;2.40;;;13.60;99.90;;;;;;5073470;28;20437;-73
2022/11/09 08:08:08;;;;;;;5.60;2.40;;;13.70;99.90;;;;;;5073473;28;20437;-73
2022/11/09 08:10:36;;;;;;;9.00;2.80;;;13.70;99.90;;;;;;5072067;28;20479;-73
2022/11/09 08:13:07;;;;;;;7.50;2.70;;;13.70;99.90;;;;;;5073399;28;20536;-73
2022/11/09 08:15:37;;;;;;;7.10;2.53;;;13.70;99.90;;;;;;5073698;28;20454;-72
2022/11/09 08:18:10;;;;;;;7.57;3.17;;;13.80;99.90;;;;;;5073521;28;20468;-73
2022/11/09 08:20:38;;;;;;;5.20;2.70;;;13.80;99.90;;;;;;5073271;28;20898;-74
2022/11/09 08:23:06;;;;;;;10.30;4.30;;;13.80;99.90;;;;;;5073577;28;20514;-73
2022/11/09 08:25:35;;;;;;;5.40;2.30;;;13.80;99.90;;;;;;5073655;28;20491;-73
2022/11/09 08:28:03;;;;;;;8.73;2.97;;;13.90;99.90;;;;;;5072080;28;20969;-73
2022/11/09 08:30:32;;;;;;;7.00;2.30;;;13.90;99.90;;;;;;5074005;28;20851;-73
2022/11/09 08:33:02;;;;;;;6.70;2.20;;;13.90;99.90;;;;;;5074317;28;20460;-74
2022/11/09 08:35:32;;;;;;;9.67;3.40;;;13.90;99.90;;;;;;5077962;28;20448;-73
2022/11/09 08:38:02;;;;;;;5.80;2.30;;;14.00;99.90;;;;;;5077254;28;20877;-73
2022/11/09 08:40:32;;;;;;;10.17;3.10;;;14.00;99.90;;;;;;5077077;28;20421;-73
2022/11/09 08:43:04;;;;;;;5.60;2.80;;;14.10;99.90;;;;;;5077211;28;20814;-73
2022/11/09 08:45:37;;;;;;;7.43;2.97;;;14.10;99.90;;;;;;5077329;28;20428;-72
2022/11/09 08:48:06;;;;;;;7.70;3.30;;;14.20;99.90;;;;;;5075736;28;20476;-74
2022/11/09 08:50:36;;;;;;;9.90;3.00;;;14.20;99.90;;;;;;5076627;28;20441;-73
2022/11/09 08:53:06;;;;;;;8.03;2.70;;;14.20;99.90;;;;;;5077025;28;20456;-73
2022/11/09 08:55:35;;;;;;;10.43;3.30;;;14.30;99.90;;;;;;5076619;28;20892;-74
2022/11/09 08:58:04;;;;;;;9.80;2.50;;;14.30;99.90;;;;;;5076993;28;20439;-73
2022/11/09 09:00:32;;;;;;;6.57;2.37;;;14.40;99.90;;;;;;5075328;28;20958;-72
2022/11/09 09:03:03;;;;;;;4.63;2.40;;;14.40;99.90;;;;;;5076585;28;20481;-73
2022/11/09 09:05:32;;;;;;;6.73;2.50;;;14.40;99.90;;;;;;5077141;28;20906;-72
2022/11/09 09:08:02;;;;;;;7.70;3.30;;;14.50;99.90;;;;;;5076737;28;20831;-73
2022/11/09 09:10:31;;;;;;;10.70;2.97;;;14.50;99.90;;;;;;5075009;28;20437;-73
2022/11/09 09:13:00;;;;;;;8.23;2.57;;;14.50;99.90;;;;;;5076270;28;20491;-73
2022/11/09 09:15:28;;;;;;;10.53;3.23;;;14.50;99.90;;;;;;5075255;28;20452;-72
2022/11/09 09:17:58;;;;;;;7.17;3.03;;;14.50;99.90;;;;;;5075188;28;20476;-73
2022/11/09 09:20:26;;;;;;;7.47;2.80;;;14.50;99.90;;;;;;5076130;28;20913;-73
2022/11/09 09:22:57;;;;;;;7.20;2.47;;;14.50;99.90;;;;;;5076079;28;20495;-73
2022/11/09 09:25:27;;;;;;;6.57;2.37;;;14.50;99.90;;;;;;5076646;28;20420;-73
2022/11/09 09:27:55;;;;;;;5.00;2.77;;;14.60;99.90;;;;;;5077048;28;20469;-73
2022/11/09 09:30:23;;;;;;;7.13;2.50;;;14.60;99.90;;;;;;5076267;28;20528;-73
2022/11/09 09:32:51;;;;;;;5.50;2.50;;;14.60;99.90;;;;;;5076007;28;20465;-73
2022/11/09 09:35:19;;;;;;;7.83;2.20;;;14.60;99.90;;;;;;5076931;28;20452;-72
2022/11/09 09:37:47;;;;;;;6.90;2.77;;;14.60;99.90;;;;;;5075027;28;20605;-73
2022/11/09 09:40:25;;;;;;;8.00;2.87;;;14.60;99.90;;;;;;5076112;28;20455;-72
2022/11/09 09:42:55;;;;;;;7.97;2.67;;;14.70;99.90;;;;;;5074532;28;20556;-73
2022/11/09 09:45:28;;;;;;;7.73;2.93;;;14.70;99.90;;;;;;5074961;28;20433;-73
2022/11/09 09:48:00;;;;;;;6.23;2.30;;;14.70;99.90;;;;;;5076694;28;20424;-72
2022/11/09 09:50:36;;;;;;;9.07;2.67;;;14.70;99.90;;;;;;5074541;28;20436;-73
2022/11/09 09:53:13;;;;;;;7.40;2.03;;;14.70;99.90;;;;;;5075758;28;20452;-73
2022/11/09 09:56:03;;;;;;;7.53;2.40;;;14.70;99.90;;;;;;5075957;28;20474;-73
2022/11/09 09:58:35;;;;;;;7.50;2.40;;;14.70;99.90;;;;;;5076845;28;20480;-73
2022/11/09 10:01:08;;;;;;;8.13;2.60;;;14.80;99.90;;;;;;5075276;28;20425;-73
2022/11/09 10:03:37;;;;;;;8.20;2.73;;;14.80;99.90;;;;;;5076315;28;20825;-72
2022/11/09 10:06:16;;;;;;;8.33;2.50;;;14.80;99.90;;;;;;5076859;28;20449;-73
2022/11/09 10:08:55;;;;;;;7.20;3.00;;;14.80;99.90;;;;;;5075245;28;20492;-72
2022/11/09 10:11:32;;;;;;;7.10;2.23;;;14.80;99.90;;;;;;5076185;28;20425;-72
2022/11/09 10:14:20;;;;;;;8.07;2.50;;;14.90;99.90;;;;;;5076821;28;20414;-72
2022/11/09 10:16:55;;;;;;;9.37;2.77;;;14.90;99.90;;;;;;5077286;28;20953;-72
2022/11/09 10:19:38;;;;;;;8.80;2.70;;;14.90;99.90;;;;;;5074579;28;20432;-72
2022/11/09 10:22:11;;;;;;;8.00;2.80;;;15.00;99.90;;;;;;5075732;28;20476;-73
2022/11/09 10:24:47;;;;;;;8.53;3.10;;;15.00;99.90;;;;;;5076143;28;20417;-72
2022/11/09 10:27:37;;;;;;;5.80;2.50;;;15.00;99.90;;;;;;5075728;28;20417;-72
2022/11/09 10:30:14;;;;;;;6.70;2.40;;;15.10;99.90;;;;;;5075667;28;20502;-73
2022/11/09 10:32:44;;;;;;;8.33;2.40;;;15.20;99.90;;;;;;5077119;28;20457;-72
2022/11/09 10:35:19;;;;;;;11.17;3.43;;;15.30;99.90;;;;;;5075475;28;20417;-72
2022/11/09 10:37:48;;;;;;;8.77;3.40;;;15.30;99.90;;;;;;5075201;28;20566;-72
2022/11/09 10:40:25;;;;;;;9.20;2.70;;;15.40;99.90;;;;;;5074928;28;20804;-72
2022/11/09 10:43:13;;;;;;;6.60;2.07;;;15.40;99.90;;;;;;5075332;28;20464;-72
2022/11/09 10:46:04;;;;;;;17.57;3.00;;;15.50;99.90;;;;;;5075249;28;20529;-72
2022/11/09 10:48:51;;;;;;;8.77;3.67;;;15.50;99.90;;;;;;5075095;28;20416;-73
2022/11/09 10:51:41;;;;;;;7.40;2.30;;;15.50;99.90;;;;;;5074866;28;20495;-72
2022/11/09 10:54:31;;;;;;;5.60;2.00;;;15.50;99.90;;;;;;5075287;28;20416;-72
2022/11/09 10:57:20;;;;;;;6.40;2.43;;;15.50;99.90;;;;;;5074521;28;20543;-72
2022/11/09 11:00:15;;;;;;;9.50;2.60;;;15.40;99.90;;;;;;5074987;28;20428;-72
2022/11/09 11:03:15;;;;;;;6.17;3.10;;;15.40;99.90;;;;;;5077492;28;20456;-73
2022/11/09 11:06:03;;;;;;;7.47;2.43;;;15.40;99.90;;;;;;5075401;28;20421;-73
2022/11/09 11:08:51;;;;;;;6.00;2.30;;;15.30;99.90;;;;;;5074977;28;20425;-72
2022/11/09 11:11:39;;;;;;;6.00;2.27;;;15.30;99.90;;;;;;5074622;28;20425;-73
2022/11/09 11:14:31;;;;;;;7.83;2.70;;;15.30;99.90;;;;;;5074225;28;20507;-73
2022/11/09 11:17:23;;;;;;;9.93;2.70;;;15.30;99.90;;;;;;5074267;28;20457;-73
2022/11/09 11:20:30;;;;;;;8.50;2.80;;;15.40;99.90;;;;;;5074222;28;20429;-73
2022/11/09 11:23:18;;;;;;;7.80;2.83;;;15.40;99.90;;;;;;5073822;28;20459;-73
2022/11/09 11:26:23;;;;;;;6.57;3.20;;;15.40;99.90;;;;;;5074003;28;20798;-73
2022/11/09 11:29:27;;;;;;;5.00;2.30;;;15.40;99.90;;;;;;5073481;28;20394;-73
2022/11/09 11:32:17;;;;;;;7.70;2.00;;;15.40;99.90;;;;;;5073730;28;20479;-73
2022/11/09 11:35:05;;;;;;;6.60;1.80;;;15.40;99.90;;;;;;5073693;28;20523;-73
2022/11/09 11:38:02;;;;;;;5.10;2.20;;;15.40;99.90;;;;;;5074006;28;21072;-73
2022/11/09 11:41:02;;;;;;;7.17;2.40;;;15.40;99.90;;;;;;5073956;28;20417;-73
2022/11/09 11:43:55;;;;;;;5.53;2.27;;;15.30;99.90;;;;;;5074076;28;20462;-73
2022/11/09 11:46:46;;;;;;;4.13;1.70;;;15.30;99.90;;;;;;5073818;28;20421;-73
2022/11/09 11:49:56;;;;;;;6.27;2.00;;;15.30;99.90;;;;;;5074012;28;21043;-73
2022/11/09 11:53:00;;;;;;;6.33;2.13;;;15.30;99.90;;;;;;5073072;28;20459;-73
2022/11/09 11:56:19;;;;;;;4.90;2.40;;;15.30;99.90;;;;;;5073445;28;20504;-73
2022/11/09 11:59:33;;;;;;;6.57;1.90;;;15.30;99.90;;;;;;5073318;28;20465;-73
2022/11/09 12:02:41;;;;;;;7.57;2.40;;;15.30;99.90;;;;;;5073908;28;20464;-73
2022/11/09 12:05:51;;;;;;;8.73;2.10;;;15.30;99.90;;;;;;5073314;28;20417;-73
2022/11/09 12:08:58;;;;;;;4.33;1.83;;;15.30;99.90;;;;;;5075013;28;20523;-73
2022/11/09 12:12:03;;;;;;;7.67;2.10;;;15.30;99.90;;;;;;5077154;28;20635;-73
2022/11/09 12:15:03;;;;;;;4.53;1.80;;;15.30;99.90;;;;;;5077418;28;20416;-73
2022/11/09 12:18:00;;;;;;;7.33;2.20;;;15.30;99.90;;;;;;5077610;28;21023;-73
2022/11/09 12:20:56;;;;;;;6.40;2.57;;;15.20;99.90;;;;;;5077368;28;20424;-74
2022/11/09 12:24:01;;;;;;;5.43;1.80;;;15.20;99.90;;;;;;5077491;28;20538;-72
2022/11/09 12:27:03;;;;;;;8.77;2.00;;;15.30;99.90;;;;;;5077562;28;20799;-72
2022/11/09 12:30:14;;;;;;;4.63;2.17;;;15.20;99.90;;;;;;5077538;28;20435;-72
2022/11/09 12:33:07;;;;;;;10.30;2.40;;;15.20;99.90;;;;;;5076823;28;20460;-72
2022/11/09 12:35:59;;;;;;;6.57;2.10;;;15.20;99.90;;;;;;5077637;28;20440;-73
2022/11/09 12:38:58;;;;;;;5.77;2.53;;;15.30;99.90;;;;;;5076887;28;21015;-73
2022/11/09 12:41:48;;;;;;;4.70;1.97;;;15.30;99.90;;;;;;5076947;28;20818;-73
2022/11/09 12:44:40;;;;;;;7.23;2.00;;;15.30;99.90;;;;;;5076840;28;20487;-73
2022/11/09 12:47:30;;;;;;;7.50;2.07;;;15.40;99.90;;;;;;5077029;28;20907;-77
2022/11/09 12:50:19;;;;;;;5.40;2.10;;;15.50;99.90;;;;;;5077560;28;20391;-73
2022/11/09 12:53:06;;;;;;;5.37;1.70;;;15.50;99.90;;;;;;5077604;28;20435;-77
2022/11/09 12:55:59;;;;;;;10.23;2.80;;;15.60;99.90;;;;;;5077537;28;20789;-76
2022/11/09 12:58:46;;;;;;;8.27;2.10;;;15.70;99.90;;;;;;5077228;28;20452;-76
2022/11/09 13:01:53;;;;;;;5.63;1.67;;;15.70;99.90;;;;;;5076836;28;20424;-73
2022/11/09 13:04:55;;;;;;;5.90;2.83;;;15.80;99.90;;;;;;5076801;28;20424;-71
2022/11/09 13:07:49;;;;;;;5.00;1.60;;;15.80;99.90;;;;;;5076858;28;20793;-74
2022/11/09 13:10:37;;;;;;;7.90;2.40;;;15.90;99.90;;;;;;5077506;28;20937;-74
2022/11/09 13:13:25;;;;;;;7.80;2.53;;;15.90;99.90;;;;;;5076465;28;20467;-75
2022/11/09 13:16:31;;;;;;;4.43;2.37;;;15.90;99.90;;;;;;5076988;28;20503;-75
2022/11/09 13:19:49;;;;;;;4.40;1.93;;;15.80;99.90;;;;;;5076154;28;20456;-75
2022/11/09 13:22:59;;;;;;;6.10;1.87;;;15.80;99.90;;;;;;5076639;28;20549;-76